sensor_id;sensor_type;location;lat;lon;timestamp;P1;durP1;ratioP1;P2;durP2;ratioP2
75781;SDS011;64400;44.762;37.698;2023-03-19T00:00:42;68.65;;;12.95;;
75781;SDS011;64400;44.762;37.698;2023-03-19T00:03:16;64.57;;;14.13;;
75781;SDS011;64400;44.762;37.698;2023-03-19T00:06:04;66.05;;;12.90;;
75781;SDS011;64400;44.762;37.698;2023-03-19T00:08:54;61.50;;;13.13;;
75781;SDS011;64400;44.762;37.698;2023-03-19T00:11:23;59.97;;;13.50;;
75781;SDS011;64400;44.762;37.698;2023-03-19T00:13:52;70.60;;;12.88;;
75781;SDS011;64400;44.762;37.698;2023-03-19T00:16:41;61.83;;;11.52;;
75781;SDS011;64400;44.762;37.698;2023-03-19T00:19:30;78.32;;;12.65;;
75781;SDS011;64400;44.762;37.698;2023-03-19T00:22:11;78.72;;;12.20;;
75781;SDS011;64400;44.762;37.698;2023-03-19T00:24:53;77.13;;;11.60;;
75781;SDS011;64400;44.762;37.698;2023-03-19T00:27:35;66.28;;;12.18;;
75781;SDS011;64400;44.762;37.698;2023-03-19T00:30:17;59.03;;;11.40;;
75781;SDS011;64400;44.762;37.698;2023-03-19T00:32:58;69.10;;;11.65;;
75781;SDS011;64400;44.762;37.698;2023-03-19T00:35:40;68.88;;;10.23;;
75781;SDS011;64400;44.762;37.698;2023-03-19T00:38:29;55.35;;;11.48;;
75781;SDS011;64400;44.762;37.698;2023-03-19T00:41:19;60.58;;;12.32;;
75781;SDS011;64400;44.762;37.698;2023-03-19T00:44:08;71.05;;;13.35;;
75781;SDS011;64400;44.762;37.698;2023-03-19T00:46:57;58.50;;;12.88;;
75781;SDS011;64400;44.762;37.698;2023-03-19T00:49:27;60.90;;;14.40;;
75781;SDS011;64400;44.762;37.698;2023-03-19T00:51:56;53.33;;;11.95;;
75781;SDS011;64400;44.762;37.698;2023-03-19T00:54:44;68.43;;;11.85;;
75781;SDS011;64400;44.762;37.698;2023-03-19T00:57:33;62.85;;;13.68;;
75781;SDS011;64400;44.762;37.698;2023-03-19T01:00:03;66.93;;;13.70;;
75781;SDS011;64400;44.762;37.698;2023-03-19T01:02:39;58.20;;;13.60;;
75781;SDS011;64400;44.762;37.698;2023-03-19T01:05:29;58.72;;;14.50;;
75781;SDS011;64400;44.762;37.698;2023-03-19T01:08:02;60.38;;;15.82;;
75781;SDS011;64400;44.762;37.698;2023-03-19T01:10:32;73.22;;;16.15;;
75781;SDS011;64400;44.762;37.698;2023-03-19T01:13:04;59.42;;;13.60;;
75781;SDS011;64400;44.762;37.698;2023-03-19T01:15:53;64.00;;;15.20;;
75781;SDS011;64400;44.762;37.698;2023-03-19T01:18:42;64.75;;;16.33;;
75781;SDS011;64400;44.762;37.698;2023-03-19T01:21:31;60.22;;;16.67;;
75781;SDS011;64400;44.762;37.698;2023-03-19T01:24:21;58.60;;;15.55;;
75781;SDS011;64400;44.762;37.698;2023-03-19T01:26:53;64.32;;;16.30;;
75781;SDS011;64400;44.762;37.698;2023-03-19T01:29:34;60.72;;;16.70;;
75781;SDS011;64400;44.762;37.698;2023-03-19T01:35:31;63.08;;;18.92;;
75781;SDS011;64400;44.762;37.698;2023-03-19T01:38:23;53.63;;;16.98;;
75781;SDS011;64400;44.762;37.698;2023-03-19T01:41:03;72.55;;;19.77;;
75781;SDS011;64400;44.762;37.698;2023-03-19T01:43:48;62.42;;;18.00;;
75781;SDS011;64400;44.762;37.698;2023-03-19T01:46:47;58.35;;;17.98;;
75781;SDS011;64400;44.762;37.698;2023-03-19T01:49:56;58.70;;;17.17;;
75781;SDS011;64400;44.762;37.698;2023-03-19T01:52:31;57.50;;;16.90;;
75781;SDS011;64400;44.762;37.698;2023-03-19T01:55:33;51.78;;;14.95;;
75781;SDS011;64400;44.762;37.698;2023-03-19T01:58:11;52.60;;;16.58;;
75781;SDS011;64400;44.762;37.698;2023-03-19T02:01:07;52.22;;;15.50;;
75781;SDS011;64400;44.762;37.698;2023-03-19T02:03:55;50.92;;;16.00;;
75781;SDS011;64400;44.762;37.698;2023-03-19T02:06:39;53.15;;;17.52;;
75781;SDS011;64400;44.762;37.698;2023-03-19T02:09:30;44.00;;;13.43;;
75781;SDS011;64400;44.762;37.698;2023-03-19T02:12:19;45.55;;;12.07;;
75781;SDS011;64400;44.762;37.698;2023-03-19T02:14:50;47.80;;;12.45;;
75781;SDS011;64400;44.762;37.698;2023-03-19T02:17:33;49.95;;;13.32;;
75781;SDS011;64400;44.762;37.698;2023-03-19T02:26:37;54.65;;;12.38;;
75781;SDS011;64400;44.762;37.698;2023-03-19T02:29:09;61.30;;;11.55;;
75781;SDS011;64400;44.762;37.698;2023-03-19T02:31:39;43.85;;;10.90;;
75781;SDS011;64400;44.762;37.698;2023-03-19T02:37:21;61.08;;;14.55;;
75781;SDS011;64400;44.762;37.698;2023-03-19T02:40:06;41.47;;;11.48;;
75781;SDS011;64400;44.762;37.698;2023-03-19T02:42:55;50.97;;;14.57;;
75781;SDS011;64400;44.762;37.698;2023-03-19T02:45:44;63.15;;;13.07;;
75781;SDS011;64400;44.762;37.698;2023-03-19T02:48:15;53.85;;;12.48;;
75781;SDS011;64400;44.762;37.698;2023-03-19T02:51:04;44.20;;;12.77;;
75781;SDS011;64400;44.762;37.698;2023-03-19T02:53:47;48.15;;;12.50;;
75781;SDS011;64400;44.762;37.698;2023-03-19T02:56:36;49.03;;;11.30;;
75781;SDS011;64400;44.762;37.698;2023-03-19T02:59:18;49.63;;;11.65;;
75781;SDS011;64400;44.762;37.698;2023-03-19T03:02:01;49.65;;;10.48;;
75781;SDS011;64400;44.762;37.698;2023-03-19T03:04:42;38.17;;;11.50;;
75781;SDS011;64400;44.762;37.698;2023-03-19T03:07:24;50.92;;;14.35;;
75781;SDS011;64400;44.762;37.698;2023-03-19T03:10:06;50.83;;;11.88;;
75781;SDS011;64400;44.762;37.698;2023-03-19T03:12:49;43.08;;;11.77;;
75781;SDS011;64400;44.762;37.698;2023-03-19T03:15:31;55.20;;;13.32;;
75781;SDS011;64400;44.762;37.698;2023-03-19T03:17:59;57.15;;;15.75;;
75781;SDS011;64400;44.762;37.698;2023-03-19T03:20:28;52.88;;;16.17;;
75781;SDS011;64400;44.762;37.698;2023-03-19T03:23:09;68.68;;;18.75;;
75781;SDS011;64400;44.762;37.698;2023-03-19T03:25:59;69.53;;;17.45;;
75781;SDS011;64400;44.762;37.698;2023-03-19T03:28:33;60.75;;;17.20;;
75781;SDS011;64400;44.762;37.698;2023-03-19T03:31:22;48.33;;;14.82;;
75781;SDS011;64400;44.762;37.698;2023-03-19T03:33:52;56.67;;;16.80;;
75781;SDS011;64400;44.762;37.698;2023-03-19T03:36:41;48.80;;;15.85;;
75781;SDS011;64400;44.762;37.698;2023-03-19T03:39:30;54.60;;;15.65;;
75781;SDS011;64400;44.762;37.698;2023-03-19T03:42:01;71.32;;;17.02;;
75781;SDS011;64400;44.762;37.698;2023-03-19T03:44:52;54.55;;;14.88;;
75781;SDS011;64400;44.762;37.698;2023-03-19T03:47:43;53.88;;;14.13;;
75781;SDS011;64400;44.762;37.698;2023-03-19T03:50:13;58.20;;;14.88;;
75781;SDS011;64400;44.762;37.698;2023-03-19T03:52:55;48.03;;;15.10;;
75781;SDS011;64400;44.762;37.698;2023-03-19T03:55:38;53.38;;;13.10;;
75781;SDS011;64400;44.762;37.698;2023-03-19T03:58:23;47.75;;;12.90;;
75781;SDS011;64400;44.762;37.698;2023-03-19T04:01:15;46.38;;;12.10;;
75781;SDS011;64400;44.762;37.698;2023-03-19T04:03:52;49.85;;;12.73;;
75781;SDS011;64400;44.762;37.698;2023-03-19T04:06:23;53.33;;;14.48;;
75781;SDS011;64400;44.762;37.698;2023-03-19T04:09:10;45.88;;;15.30;;
75781;SDS011;64400;44.762;37.698;2023-03-19T04:11:58;53.97;;;15.57;;
75781;SDS011;64400;44.762;37.698;2023-03-19T04:14:32;53.70;;;16.05;;
75781;SDS011;64400;44.762;37.698;2023-03-19T04:17:05;34.80;;;13.68;;
75781;SDS011;64400;44.762;37.698;2023-03-19T04:19:35;42.15;;;11.40;;
75781;SDS011;64400;44.762;37.698;2023-03-19T04:22:26;48.95;;;14.07;;
75781;SDS011;64400;44.762;37.698;2023-03-19T04:24:55;40.00;;;13.45;;
75781;SDS011;64400;44.762;37.698;2023-03-19T04:27:25;40.10;;;11.63;;
75781;SDS011;64400;44.762;37.698;2023-03-19T04:29:56;42.85;;;12.98;;
75781;SDS011;64400;44.762;37.698;2023-03-19T04:32:46;49.40;;;12.60;;
75781;SDS011;64400;44.762;37.698;2023-03-19T04:35:18;45.20;;;12.07;;
75781;SDS011;64400;44.762;37.698;2023-03-19T04:37:48;46.33;;;13.30;;
75781;SDS011;64400;44.762;37.698;2023-03-19T04:40:18;43.38;;;13.93;;
75781;SDS011;64400;44.762;37.698;2023-03-19T04:42:47;43.38;;;12.70;;
75781;SDS011;64400;44.762;37.698;2023-03-19T04:45:37;40.55;;;14.18;;
75781;SDS011;64400;44.762;37.698;2023-03-19T04:48:07;48.20;;;13.65;;
75781;SDS011;64400;44.762;37.698;2023-03-19T04:50:36;45.38;;;13.68;;
75781;SDS011;64400;44.762;37.698;2023-03-19T04:53:13;36.17;;;13.80;;
75781;SDS011;64400;44.762;37.698;2023-03-19T04:55:43;42.47;;;13.43;;
75781;SDS011;64400;44.762;37.698;2023-03-19T04:58:16;42.95;;;11.98;;
75781;SDS011;64400;44.762;37.698;2023-03-19T05:01:06;35.35;;;11.20;;
75781;SDS011;64400;44.762;37.698;2023-03-19T05:04:02;38.90;;;10.68;;
75781;SDS011;64400;44.762;37.698;2023-03-19T05:06:53;30.23;;;11.65;;
75781;SDS011;64400;44.762;37.698;2023-03-19T05:09:43;31.70;;;11.95;;
75781;SDS011;64400;44.762;37.698;2023-03-19T05:12:33;35.83;;;13.88;;
75781;SDS011;64400;44.762;37.698;2023-03-19T05:15:09;35.50;;;14.80;;
75781;SDS011;64400;44.762;37.698;2023-03-19T05:17:46;45.47;;;15.02;;
75781;SDS011;64400;44.762;37.698;2023-03-19T05:20:21;38.92;;;15.63;;
75781;SDS011;64400;44.762;37.698;2023-03-19T05:23:04;40.00;;;15.75;;
75781;SDS011;64400;44.762;37.698;2023-03-19T05:25:57;35.05;;;15.13;;
75781;SDS011;64400;44.762;37.698;2023-03-19T05:29:08;46.92;;;16.98;;
75781;SDS011;64400;44.762;37.698;2023-03-19T05:32:06;36.90;;;16.63;;
75781;SDS011;64400;44.762;37.698;2023-03-19T05:34:35;39.75;;;16.17;;
75781;SDS011;64400;44.762;37.698;2023-03-19T05:37:04;44.80;;;16.67;;
75781;SDS011;64400;44.762;37.698;2023-03-19T05:39:33;37.72;;;15.85;;
75781;SDS011;64400;44.762;37.698;2023-03-19T05:42:07;36.65;;;15.35;;
75781;SDS011;64400;44.762;37.698;2023-03-19T05:44:49;43.72;;;18.58;;
75781;SDS011;64400;44.762;37.698;2023-03-19T05:47:35;45.20;;;18.50;;
75781;SDS011;64400;44.762;37.698;2023-03-19T05:50:06;42.05;;;18.25;;
75781;SDS011;64400;44.762;37.698;2023-03-19T05:53:17;47.00;;;18.48;;
75781;SDS011;64400;44.762;37.698;2023-03-19T05:56:31;37.47;;;18.33;;
75781;SDS011;64400;44.762;37.698;2023-03-19T05:59:38;47.20;;;17.95;;
75781;SDS011;64400;44.762;37.698;2023-03-19T06:02:33;44.20;;;18.20;;
75781;SDS011;64400;44.762;37.698;2023-03-19T06:05:43;46.13;;;20.10;;
75781;SDS011;64400;44.762;37.698;2023-03-19T06:08:32;41.25;;;19.13;;
75781;SDS011;64400;44.762;37.698;2023-03-19T06:11:12;44.35;;;18.67;;
75781;SDS011;64400;44.762;37.698;2023-03-19T06:13:47;47.30;;;16.80;;
75781;SDS011;64400;44.762;37.698;2023-03-19T06:16:39;37.05;;;15.57;;
75781;SDS011;64400;44.762;37.698;2023-03-19T06:19:27;40.67;;;15.15;;
75781;SDS011;64400;44.762;37.698;2023-03-19T06:21:56;32.83;;;13.45;;
75781;SDS011;64400;44.762;37.698;2023-03-19T06:24:34;29.25;;;11.60;;
75781;SDS011;64400;44.762;37.698;2023-03-19T06:27:07;29.33;;;11.35;;
75781;SDS011;64400;44.762;37.698;2023-03-19T06:29:41;27.70;;;10.40;;
75781;SDS011;64400;44.762;37.698;2023-03-19T06:32:23;32.38;;;10.38;;
75781;SDS011;64400;44.762;37.698;2023-03-19T06:35:12;31.88;;;10.48;;
75781;SDS011;64400;44.762;37.698;2023-03-19T06:37:44;29.30;;;9.75;;
75781;SDS011;64400;44.762;37.698;2023-03-19T06:40:34;30.27;;;11.43;;
75781;SDS011;64400;44.762;37.698;2023-03-19T06:43:38;28.27;;;10.73;;
75781;SDS011;64400;44.762;37.698;2023-03-19T06:46:28;29.50;;;10.98;;
75781;SDS011;64400;44.762;37.698;2023-03-19T06:49:17;30.25;;;12.10;;
75781;SDS011;64400;44.762;37.698;2023-03-19T06:52:06;31.00;;;13.23;;
75781;SDS011;64400;44.762;37.698;2023-03-19T06:54:54;34.55;;;13.75;;
75781;SDS011;64400;44.762;37.698;2023-03-19T06:57:46;37.70;;;14.50;;
75781;SDS011;64400;44.762;37.698;2023-03-19T07:00:37;35.80;;;13.70;;
75781;SDS011;64400;44.762;37.698;2023-03-19T07:03:05;33.25;;;14.52;;
75781;SDS011;64400;44.762;37.698;2023-03-19T07:05:54;37.38;;;13.82;;
75781;SDS011;64400;44.762;37.698;2023-03-19T07:08:42;40.05;;;14.77;;
75781;SDS011;64400;44.762;37.698;2023-03-19T07:11:28;34.78;;;15.35;;
75781;SDS011;64400;44.762;37.698;2023-03-19T07:13:56;34.88;;;14.13;;
75781;SDS011;64400;44.762;37.698;2023-03-19T07:16:23;39.03;;;14.68;;
75781;SDS011;64400;44.762;37.698;2023-03-19T07:18:53;34.17;;;14.23;;
75781;SDS011;64400;44.762;37.698;2023-03-19T07:21:24;38.50;;;14.20;;
75781;SDS011;64400;44.762;37.698;2023-03-19T07:24:05;38.20;;;15.30;;
75781;SDS011;64400;44.762;37.698;2023-03-19T07:26:53;36.33;;;15.18;;
75781;SDS011;64400;44.762;37.698;2023-03-19T07:29:25;37.10;;;13.68;;
75781;SDS011;64400;44.762;37.698;2023-03-19T07:32:14;35.50;;;13.10;;
75781;SDS011;64400;44.762;37.698;2023-03-19T07:34:43;35.75;;;13.45;;
75781;SDS011;64400;44.762;37.698;2023-03-19T07:37:32;40.75;;;14.20;;
75781;SDS011;64400;44.762;37.698;2023-03-19T07:40:20;38.78;;;14.93;;
75781;SDS011;64400;44.762;37.698;2023-03-19T07:43:09;39.80;;;13.73;;
75781;SDS011;64400;44.762;37.698;2023-03-19T07:45:38;41.22;;;12.63;;
75781;SDS011;64400;44.762;37.698;2023-03-19T07:48:08;40.75;;;13.80;;
75781;SDS011;64400;44.762;37.698;2023-03-19T07:50:58;42.80;;;13.20;;
75781;SDS011;64400;44.762;37.698;2023-03-19T07:53:46;39.67;;;10.93;;
75781;SDS011;64400;44.762;37.698;2023-03-19T07:56:31;41.50;;;13.27;;
75781;SDS011;64400;44.762;37.698;2023-03-19T07:59:20;44.55;;;13.10;;
75781;SDS011;64400;44.762;37.698;2023-03-19T08:01:50;42.65;;;13.25;;
75781;SDS011;64400;44.762;37.698;2023-03-19T08:04:18;42.72;;;13.48;;
75781;SDS011;64400;44.762;37.698;2023-03-19T08:07:06;41.65;;;12.10;;
75781;SDS011;64400;44.762;37.698;2023-03-19T08:09:38;35.35;;;10.30;;
75781;SDS011;64400;44.762;37.698;2023-03-19T08:12:09;38.63;;;12.10;;
75781;SDS011;64400;44.762;37.698;2023-03-19T08:14:43;38.42;;;12.20;;
75781;SDS011;64400;44.762;37.698;2023-03-19T08:17:31;41.83;;;14.50;;
75781;SDS011;64400;44.762;37.698;2023-03-19T08:20:24;48.05;;;16.52;;
75781;SDS011;64400;44.762;37.698;2023-03-19T08:23:13;41.72;;;13.98;;
75781;SDS011;64400;44.762;37.698;2023-03-19T08:26:03;39.75;;;13.98;;
75781;SDS011;64400;44.762;37.698;2023-03-19T08:28:32;36.38;;;13.60;;
75781;SDS011;64400;44.762;37.698;2023-03-19T08:31:05;46.42;;;15.27;;
75781;SDS011;64400;44.762;37.698;2023-03-19T08:33:58;42.38;;;13.85;;
75781;SDS011;64400;44.762;37.698;2023-03-19T08:36:41;39.10;;;12.30;;
75781;SDS011;64400;44.762;37.698;2023-03-19T08:39:30;42.53;;;14.25;;
75781;SDS011;64400;44.762;37.698;2023-03-19T08:41:58;35.05;;;13.52;;
75781;SDS011;64400;44.762;37.698;2023-03-19T08:44:28;62.38;;;30.52;;
75781;SDS011;64400;44.762;37.698;2023-03-19T08:46:56;44.55;;;17.02;;
75781;SDS011;64400;44.762;37.698;2023-03-19T08:49:45;47.13;;;15.95;;
75781;SDS011;64400;44.762;37.698;2023-03-19T08:52:19;40.95;;;15.82;;
75781;SDS011;64400;44.762;37.698;2023-03-19T08:55:05;42.22;;;15.52;;
75781;SDS011;64400;44.762;37.698;2023-03-19T08:57:55;43.42;;;14.35;;
75781;SDS011;64400;44.762;37.698;2023-03-19T09:00:43;36.40;;;12.77;;
75781;SDS011;64400;44.762;37.698;2023-03-19T09:03:15;35.22;;;12.80;;
75781;SDS011;64400;44.762;37.698;2023-03-19T09:05:44;48.22;;;15.30;;
75781;SDS011;64400;44.762;37.698;2023-03-19T09:08:13;45.22;;;12.70;;
75781;SDS011;64400;44.762;37.698;2023-03-19T09:10:41;37.80;;;11.00;;
75781;SDS011;64400;44.762;37.698;2023-03-19T09:13:17;38.80;;;12.70;;
75781;SDS011;64400;44.762;37.698;2023-03-19T09:15:45;38.50;;;12.13;;
75781;SDS011;64400;44.762;37.698;2023-03-19T09:18:15;40.92;;;12.13;;
75781;SDS011;64400;44.762;37.698;2023-03-19T09:21:04;45.63;;;13.85;;
75781;SDS011;64400;44.762;37.698;2023-03-19T09:23:34;40.20;;;12.48;;
75781;SDS011;64400;44.762;37.698;2023-03-19T09:26:04;43.42;;;14.68;;
75781;SDS011;64400;44.762;37.698;2023-03-19T09:28:34;50.90;;;14.00;;
75781;SDS011;64400;44.762;37.698;2023-03-19T09:31:02;38.03;;;13.70;;
75781;SDS011;64400;44.762;37.698;2023-03-19T09:33:35;41.55;;;12.98;;
75781;SDS011;64400;44.762;37.698;2023-03-19T09:36:24;47.13;;;12.82;;
75781;SDS011;64400;44.762;37.698;2023-03-19T09:38:55;40.63;;;13.05;;
75781;SDS011;64400;44.762;37.698;2023-03-19T09:44:28;43.08;;;12.02;;
75781;SDS011;64400;44.762;37.698;2023-03-19T09:49:59;38.95;;;11.43;;
75781;SDS011;64400;44.762;37.698;2023-03-19T09:55:47;36.47;;;10.95;;
75781;SDS011;64400;44.762;37.698;2023-03-19T09:58:21;45.17;;;13.00;;
75781;SDS011;64400;44.762;37.698;2023-03-19T10:00:54;40.60;;;12.80;;
75781;SDS011;64400;44.762;37.698;2023-03-19T10:11:31;52.05;;;14.52;;
75781;SDS011;64400;44.762;37.698;2023-03-19T10:17:35;58.88;;;17.27;;
75781;SDS011;64400;44.762;37.698;2023-03-19T10:20:08;28.85;;;10.07;;
75781;SDS011;64400;44.762;37.698;2023-03-19T10:22:47;43.67;;;13.23;;
75781;SDS011;64400;44.762;37.698;2023-03-19T10:25:21;51.97;;;15.80;;
75781;SDS011;64400;44.762;37.698;2023-03-19T10:28:06;51.80;;;14.52;;
75781;SDS011;64400;44.762;37.698;2023-03-19T10:31:06;52.80;;;16.85;;
75781;SDS011;64400;44.762;37.698;2023-03-19T10:36:46;54.08;;;15.60;;
75781;SDS011;64400;44.762;37.698;2023-03-19T10:39:14;59.60;;;16.50;;
75781;SDS011;64400;44.762;37.698;2023-03-19T10:48:15;126.85;;;23.58;;
75781;SDS011;64400;44.762;37.698;2023-03-19T10:51:05;63.92;;;17.10;;
75781;SDS011;64400;44.762;37.698;2023-03-19T10:53:36;57.60;;;15.80;;
75781;SDS011;64400;44.762;37.698;2023-03-19T10:56:26;63.97;;;18.63;;
75781;SDS011;64400;44.762;37.698;2023-03-19T10:59:20;57.05;;;18.65;;
75781;SDS011;64400;44.762;37.698;2023-03-19T11:02:16;58.40;;;19.17;;
75781;SDS011;64400;44.762;37.698;2023-03-19T11:07:50;52.45;;;16.67;;
75781;SDS011;64400;44.762;37.698;2023-03-19T11:10:49;66.18;;;16.67;;
75781;SDS011;64400;44.762;37.698;2023-03-19T11:13:33;51.22;;;15.15;;
75781;SDS011;64400;44.762;37.698;2023-03-19T11:16:16;54.10;;;15.45;;
75781;SDS011;64400;44.762;37.698;2023-03-19T11:18:57;77.32;;;23.95;;
75781;SDS011;64400;44.762;37.698;2023-03-19T11:21:39;61.97;;;16.88;;
75781;SDS011;64400;44.762;37.698;2023-03-19T11:24:31;52.35;;;17.88;;
75781;SDS011;64400;44.762;37.698;2023-03-19T11:27:08;70.20;;;25.52;;
75781;SDS011;64400;44.762;37.698;2023-03-19T11:29:40;62.15;;;20.23;;
75781;SDS011;64400;44.762;37.698;2023-03-19T11:36:00;70.25;;;19.67;;
75781;SDS011;64400;44.762;37.698;2023-03-19T11:42:29;93.50;;;36.17;;
75781;SDS011;64400;44.762;37.698;2023-03-19T11:48:30;69.53;;;22.80;;
75781;SDS011;64400;44.762;37.698;2023-03-19T11:54:25;72.03;;;24.25;;
75781;SDS011;64400;44.762;37.698;2023-03-19T11:57:33;75.78;;;26.25;;
75781;SDS011;64400;44.762;37.698;2023-03-19T12:00:35;69.00;;;24.65;;
75781;SDS011;64400;44.762;37.698;2023-03-19T12:07:17;72.40;;;28.55;;
75781;SDS011;64400;44.762;37.698;2023-03-19T12:31:50;59.20;;;20.50;;
75781;SDS011;64400;44.762;37.698;2023-03-19T12:46:55;68.60;;;24.15;;
75781;SDS011;64400;44.762;37.698;2023-03-19T12:49:47;57.70;;;23.27;;
75781;SDS011;64400;44.762;37.698;2023-03-19T12:52:40;75.45;;;29.42;;
75781;SDS011;64400;44.762;37.698;2023-03-19T12:58:41;63.38;;;22.13;;
75781;SDS011;64400;44.762;37.698;2023-03-19T13:01:50;69.45;;;25.23;;
75781;SDS011;64400;44.762;37.698;2023-03-19T13:04:48;56.08;;;19.80;;
75781;SDS011;64400;44.762;37.698;2023-03-19T13:07:54;56.45;;;18.45;;
75781;SDS011;64400;44.762;37.698;2023-03-19T13:11:07;63.25;;;24.35;;
75781;SDS011;64400;44.762;37.698;2023-03-19T13:13:54;55.40;;;23.50;;
75781;SDS011;64400;44.762;37.698;2023-03-19T13:19:48;67.68;;;23.25;;
75781;SDS011;64400;44.762;37.698;2023-03-19T13:22:41;61.08;;;24.80;;
75781;SDS011;64400;44.762;37.698;2023-03-19T13:25:39;54.90;;;20.60;;
75781;SDS011;64400;44.762;37.698;2023-03-19T13:28:31;60.17;;;23.95;;
75781;SDS011;64400;44.762;37.698;2023-03-19T13:31:25;51.00;;;20.80;;
75781;SDS011;64400;44.762;37.698;2023-03-19T13:39:49;48.10;;;18.60;;
75781;SDS011;64400;44.762;37.698;2023-03-19T13:42:39;50.35;;;20.60;;
75781;SDS011;64400;44.762;37.698;2023-03-19T13:45:34;52.95;;;20.63;;
75781;SDS011;64400;44.762;37.698;2023-03-19T13:57:05;76.28;;;28.70;;
75781;SDS011;64400;44.762;37.698;2023-03-19T14:03:32;55.17;;;20.70;;
75781;SDS011;64400;44.762;37.698;2023-03-19T14:06:29;45.35;;;18.58;;
75781;SDS011;64400;44.762;37.698;2023-03-19T14:09:32;48.63;;;18.55;;
75781;SDS011;64400;44.762;37.698;2023-03-19T14:18:02;46.67;;;15.50;;
75781;SDS011;64400;44.762;37.698;2023-03-19T14:20:49;47.83;;;20.30;;
75781;SDS011;64400;44.762;37.698;2023-03-19T14:23:41;44.72;;;14.30;;
75781;SDS011;64400;44.762;37.698;2023-03-19T14:26:33;46.53;;;14.63;;
75781;SDS011;64400;44.762;37.698;2023-03-19T14:29:15;35.83;;;13.65;;
75781;SDS011;64400;44.762;37.698;2023-03-19T14:31:59;41.10;;;15.15;;
75781;SDS011;64400;44.762;37.698;2023-03-19T14:34:48;47.10;;;14.85;;
75781;SDS011;64400;44.762;37.698;2023-03-19T14:37:40;37.75;;;13.82;;
75781;SDS011;64400;44.762;37.698;2023-03-19T14:40:37;44.15;;;14.27;;
75781;SDS011;64400;44.762;37.698;2023-03-19T14:43:53;38.22;;;14.35;;
75781;SDS011;64400;44.762;37.698;2023-03-19T14:55:36;46.75;;;14.93;;
75781;SDS011;64400;44.762;37.698;2023-03-19T14:58:20;37.38;;;13.75;;
75781;SDS011;64400;44.762;37.698;2023-03-19T15:01:04;40.25;;;12.98;;
75781;SDS011;64400;44.762;37.698;2023-03-19T15:03:54;44.13;;;14.02;;
75781;SDS011;64400;44.762;37.698;2023-03-19T15:06:50;40.63;;;15.13;;
75781;SDS011;64400;44.762;37.698;2023-03-19T15:09:44;48.63;;;14.93;;
75781;SDS011;64400;44.762;37.698;2023-03-19T15:19:08;30.90;;;13.13;;
75781;SDS011;64400;44.762;37.698;2023-03-19T15:22:04;49.58;;;14.13;;
75781;SDS011;64400;44.762;37.698;2023-03-19T15:28:07;32.20;;;13.02;;
75781;SDS011;64400;44.762;37.698;2023-03-19T15:31:02;38.70;;;13.70;;
75781;SDS011;64400;44.762;37.698;2023-03-19T15:33:52;39.72;;;13.77;;
75781;SDS011;64400;44.762;37.698;2023-03-19T15:36:41;39.70;;;13.73;;
75781;SDS011;64400;44.762;37.698;2023-03-19T15:39:32;38.88;;;15.20;;
75781;SDS011;64400;44.762;37.698;2023-03-19T15:44:57;41.25;;;15.80;;
75781;SDS011;64400;44.762;37.698;2023-03-19T15:47:27;36.53;;;16.63;;
75781;SDS011;64400;44.762;37.698;2023-03-19T15:52:30;41.20;;;14.88;;
75781;SDS011;64400;44.762;37.698;2023-03-19T15:55:01;50.50;;;16.17;;
75781;SDS011;64400;44.762;37.698;2023-03-19T15:57:54;37.25;;;15.15;;
75781;SDS011;64400;44.762;37.698;2023-03-19T16:00:38;47.97;;;15.18;;
75781;SDS011;64400;44.762;37.698;2023-03-19T16:03:25;40.75;;;16.23;;
75781;SDS011;64400;44.762;37.698;2023-03-19T16:06:13;48.05;;;17.58;;
75781;SDS011;64400;44.762;37.698;2023-03-19T16:12:21;37.20;;;14.27;;
75781;SDS011;64400;44.762;37.698;2023-03-19T16:15:27;43.97;;;15.93;;
75781;SDS011;64400;44.762;37.698;2023-03-19T16:21:00;41.22;;;15.77;;
75781;SDS011;64400;44.762;37.698;2023-03-19T16:24:31;38.58;;;15.80;;
75781;SDS011;64400;44.762;37.698;2023-03-19T16:27:12;42.55;;;16.15;;
75781;SDS011;64400;44.762;37.698;2023-03-19T16:29:59;42.50;;;17.08;;
75781;SDS011;64400;44.762;37.698;2023-03-19T16:32:43;43.85;;;15.63;;
75781;SDS011;64400;44.762;37.698;2023-03-19T16:35:26;44.55;;;15.93;;
75781;SDS011;64400;44.762;37.698;2023-03-19T16:41:40;41.85;;;16.92;;
75781;SDS011;64400;44.762;37.698;2023-03-19T16:43:51;32.90;;;14.68;;
75781;SDS011;64400;44.762;37.698;2023-03-19T16:46:21;38.17;;;14.32;;
75781;SDS011;64400;44.762;37.698;2023-03-19T16:48:50;31.67;;;13.02;;
75781;SDS011;64400;44.762;37.698;2023-03-19T16:51:18;35.63;;;14.93;;
75781;SDS011;64400;44.762;37.698;2023-03-19T16:53:54;40.15;;;14.52;;
75781;SDS011;64400;44.762;37.698;2023-03-19T16:56:29;41.95;;;15.25;;
75781;SDS011;64400;44.762;37.698;2023-03-19T16:59:24;31.10;;;13.25;;
75781;SDS011;64400;44.762;37.698;2023-03-19T17:02:11;42.50;;;15.10;;
75781;SDS011;64400;44.762;37.698;2023-03-19T17:04:54;37.08;;;13.30;;
75781;SDS011;64400;44.762;37.698;2023-03-19T17:07:36;39.00;;;14.15;;
75781;SDS011;64400;44.762;37.698;2023-03-19T17:10:19;32.28;;;11.40;;
75781;SDS011;64400;44.762;37.698;2023-03-19T17:13:04;50.92;;;14.98;;
75781;SDS011;64400;44.762;37.698;2023-03-19T17:15:47;45.70;;;15.65;;
75781;SDS011;64400;44.762;37.698;2023-03-19T17:18:32;38.38;;;14.07;;
75781;SDS011;64400;44.762;37.698;2023-03-19T17:21:26;33.67;;;13.50;;
75781;SDS011;64400;44.762;37.698;2023-03-19T17:24:33;39.20;;;15.57;;
75781;SDS011;64400;44.762;37.698;2023-03-19T17:27:00;37.22;;;15.00;;
75781;SDS011;64400;44.762;37.698;2023-03-19T17:29:28;42.38;;;18.30;;
75781;SDS011;64400;44.762;37.698;2023-03-19T17:31:57;51.92;;;18.05;;
75781;SDS011;64400;44.762;37.698;2023-03-19T17:34:29;44.00;;;18.63;;
75781;SDS011;64400;44.762;37.698;2023-03-19T17:37:02;44.15;;;18.98;;
75781;SDS011;64400;44.762;37.698;2023-03-19T17:39:29;35.92;;;19.55;;
75781;SDS011;64400;44.762;37.698;2023-03-19T17:41:57;19.98;;;9.75;;
75781;SDS011;64400;44.762;37.698;2023-03-19T17:44:24;44.78;;;21.05;;
75781;SDS011;64400;44.762;37.698;2023-03-19T17:46:51;42.28;;;20.40;;
75781;SDS011;64400;44.762;37.698;2023-03-19T17:52:14;39.00;;;20.60;;
75781;SDS011;64400;44.762;37.698;2023-03-19T17:55:10;44.78;;;22.95;;
75781;SDS011;64400;44.762;37.698;2023-03-19T17:57:46;38.45;;;20.70;;
75781;SDS011;64400;44.762;37.698;2023-03-19T18:00:18;37.63;;;20.88;;
75781;SDS011;64400;44.762;37.698;2023-03-19T18:02:59;35.40;;;17.88;;
75781;SDS011;64400;44.762;37.698;2023-03-19T18:05:49;39.08;;;18.42;;
75781;SDS011;64400;44.762;37.698;2023-03-19T18:08:42;38.38;;;21.42;;
75781;SDS011;64400;44.762;37.698;2023-03-19T18:11:25;40.15;;;22.15;;
75781;SDS011;64400;44.762;37.698;2023-03-19T18:14:16;42.20;;;21.85;;
75781;SDS011;64400;44.762;37.698;2023-03-19T18:16:45;36.05;;;19.55;;
75781;SDS011;64400;44.762;37.698;2023-03-19T18:19:23;35.92;;;20.55;;
75781;SDS011;64400;44.762;37.698;2023-03-19T18:22:14;31.38;;;17.75;;